Time;durP1;ratioP1;P1;durP2;ratioP2;P2;SDS_P1;SDS_P2;PMS_P1;PMS_P2;Temp;Humidity;BMP_temperature;BMP_pressure;BME280_temperature;BME280_humidity;BME280_pressure;Samples;Min_cycle;Max_cycle;Signal;HPM_P1;HPM_P2
2023/06/15 00:01:15;;;;;;;;;;;;;;;;;;5035310;28;19948;-70
2023/06/15 00:03:42;;;;;;;;;;;;;;;;;;5035306;28;20015;-71
2023/06/15 00:06:08;;;;;;;;;;;;;;;;;;5050771;28;19925;-71
2023/06/15 00:08:35;;;;;;;;;;;;;;;;;;5054689;28;20027;-71
2023/06/15 00:11:02;;;;;;;;;;;;;;;;;;5054511;28;20008;-71
2023/06/15 00:13:30;;;;;;;;;;;;;;;;;;5055081;28;19925;-72
2023/06/15 00:15:57;;;;;;;;;;;;;;;;;;5054892;28;19956;-71
2023/06/15 00:18:25;;;;;;;;;;;;;;;;;;5054422;28;20007;-71
2023/06/15 00:20:52;;;;;;;;;;;;;;;;;;5054315;28;19925;-71
2023/06/15 00:23:21;;;;;;;;;;;;;;;;;;5050490;28;20028;-71
2023/06/15 00:25:48;;;;;;;;;;;;;;;;;;5053688;28;20432;-71
2023/06/15 00:28:15;;;;;;;;;;;;;;;;;;5054920;28;19924;-71
2023/06/15 00:30:42;;;;;;;;;;;;;;;;;;5054678;28;19925;-71
2023/06/15 00:33:09;;;;;;;;;;;;;;;;;;5054431;28;19925;-71
2023/06/15 00:35:36;;;;;;;;;;;;;;;;;;5054842;28;19925;-71
2023/06/15 00:38:03;;;;;;;;;;;;;;;;;;5054634;28;20015;-71
2023/06/15 00:40:30;;;;;;;;;;;;;;;;;;5036746;28;19932;-71
2023/06/15 00:42:57;;;;;;;;;;;;;;;;;;5034447;28;19932;-71
2023/06/15 00:45:24;;;;;;;;;;;;;;;;;;5052589;28;19925;-71
2023/06/15 00:47:51;;;;;;;;;;;;;;;;;;5054366;28;20449;-71
2023/06/15 00:50:19;;;;;;;;;;;;;;;;;;5054524;28;19929;-71
2023/06/15 00:52:46;;;;;;;;;;;;;;;;;;5054635;28;19925;-71
2023/06/15 00:55:14;;;;;;;;;;;;;;;;;;5037490;28;20008;-71
2023/06/15 00:57:44;;;;;;;;;;;;;;;;;;5053743;28;20401;-71
2023/06/15 01:00:11;;;;;;;;;;;;;;;;;;5039894;28;20434;-71
2023/06/15 01:02:39;;;;;;;;;;;;;;;;;;5038316;28;19928;-71
2023/06/15 01:05:10;;;;;;;;;;;;;;;;;;5052141;28;19968;-71
2023/06/15 01:07:37;;;;;;;;;;;;;;;;;;5054449;28;19952;-71
2023/06/15 01:10:04;;;;;;;;;;;;;;;;;;5054258;28;19983;-71
2023/06/15 01:12:31;;;;;;;;;;;;;;;;;;5052601;28;19925;-71
2023/06/15 01:14:58;;;;;;;;;;;;;;;;;;5040124;28;19925;-72
2023/06/15 01:17:25;;;;;;;;;;;;;;;;;;5033979;28;19925;-71
2023/06/15 01:19:57;;;;;;;;;;;;;;;;;;5033905;28;20023;-71
2023/06/15 01:22:24;;;;;;;;;;;;;;;;;;5045257;28;19932;-71
2023/06/15 01:24:51;;;;;;;;;;;;;;;;;;5053886;28;19935;-71
2023/06/15 01:27:18;;;;;;;;;;;;;;;;;;5046139;28;19964;-71
2023/06/15 01:29:45;;;;;;;;;;;;;;;;;;5034540;28;19964;-71
2023/06/15 01:32:12;;;;;;;;;;;;;;;;;;5033743;28;20012;-70
2023/06/15 01:34:39;;;;;;;;;;;;;;;;;;5033565;28;20015;-70
2023/06/15 01:37:06;;;;;;;;;;;;;;;;;;5033597;28;19961;-71
2023/06/15 01:39:33;;;;;;;;;;;;;;;;;;5040957;28;20015;-71
2023/06/15 01:42:00;;;;;;;;;;;;;;;;;;5052972;28;20415;-71
2023/06/15 01:44:27;;;;;;;;;;;;;;;;;;5053106;28;20013;-71
2023/06/15 01:46:54;;;;;;;;;;;;;;;;;;5048734;28;19976;-71
2023/06/15 01:49:21;;;;;;;;;;;;;;;;;;5033451;28;20016;-71
2023/06/15 01:51:48;;;;;;;;;;;;;;;;;;5045860;28;20126;-71
2023/06/15 01:54:15;;;;;;;;;;;;;;;;;;5053428;28;20307;-71
2023/06/15 01:56:42;;;;;;;;;;;;;;;;;;5053578;28;20307;-70
2023/06/15 01:59:09;;;;;;;;;;;;;;;;;;5052755;28;19968;-71
2023/06/15 02:01:36;;;;;;;;;;;;;;;;;;5052999;28;19968;-71
2023/06/15 02:04:03;;;;;;;;;;;;;;;;;;5051903;28;19976;-71
2023/06/15 02:06:30;;;;;;;;;;;;;;;;;;5052777;28;20027;-71
2023/06/15 02:08:57;;;;;;;;;;;;;;;;;;5048168;28;19925;-71
2023/06/15 02:11:25;;;;;;;;;;;;;;;;;;5032862;28;19925;-71
2023/06/15 02:13:52;;;;;;;;;;;;;;;;;;5032325;28;20415;-70
2023/06/15 02:16:19;;;;;;;;;;;;;;;;;;5045418;28;19924;-71
2023/06/15 02:18:47;;;;;;;;;;;;;;;;;;5052293;28;19931;-72
2023/06/15 02:21:14;;;;;;;;;;;;;;;;;;5040696;28;19925;-71
2023/06/15 02:23:41;;;;;;;;;;;;;;;;;;5052843;28;20019;-71
2023/06/15 02:26:08;;;;;;;;;;;;;;;;;;5052140;28;19975;-71
2023/06/15 02:28:35;;;;;;;;;;;;;;;;;;5052112;28;19925;-71
2023/06/15 02:31:02;;;;;;;;;;;;;;;;;;5052201;28;20011;-71
2023/06/15 02:33:29;;;;;;;;;;;;;;;;;;5052491;28;20020;-71
2023/06/15 02:35:56;;;;;;;;;;;;;;;;;;5052012;28;20376;-71
2023/06/15 02:38:23;;;;;;;;;;;;;;;;;;5051582;28;20459;-71
2023/06/15 02:40:51;;;;;;;;;;;;;;;;;;5035887;28;19936;-71
2023/06/15 02:43:18;;;;;;;;;;;;;;;;;;5032708;28;19932;-71
2023/06/15 02:45:45;;;;;;;;;;;;;;;;;;5032566;28;19925;-71
2023/06/15 02:48:12;;;;;;;;;;;;;;;;;;5031764;28;19925;-71
2023/06/15 02:50:39;;;;;;;;;;;;;;;;;;5032329;28;19968;-71
2023/06/15 02:53:06;;;;;;;;;;;;;;;;;;5046324;28;19987;-71
2023/06/15 02:55:34;;;;;;;;;;;;;;;;;;5041393;28;19967;-71
2023/06/15 02:58:00;;;;;;;;;;;;;;;;;;5046218;28;19931;-71
2023/06/15 03:00:28;;;;;;;;;;;;;;;;;;5052501;28;19931;-72
2023/06/15 03:02:55;;;;;;;;;;;;;;;;;;5048073;28;19968;-72
2023/06/15 03:05:22;;;;;;;;;;;;;;;;;;5051634;28;19925;-72
2023/06/15 03:07:50;;;;;;;;;;;;;;;;;;5047483;28;20023;-72
2023/06/15 03:10:17;;;;;;;;;;;;;;;;;;5050493;28;20292;-72
2023/06/15 03:12:44;;;;;;;;;;;;;;;;;;5042476;28;19932;-72
2023/06/15 03:15:11;;;;;;;;;;;;;;;;;;5051866;28;20015;-71
2023/06/15 03:17:39;;;;;;;;;;;;;;;;;;5052001;28;20023;-72
2023/06/15 03:20:10;;;;;;;;;;;;;;;;;;5051864;28;19925;-71
2023/06/15 03:22:37;;;;;;;;;;;;;;;;;;5049968;28;20291;-71
2023/06/15 03:25:05;;;;;;;;;;;;;;;;;;5049927;28;19936;-72
2023/06/15 03:27:32;;;;;;;;;;;;;;;;;;5050641;28;19925;-72
2023/06/15 03:30:01;;;;;;;;;;;;;;;;;;5038370;28;19929;-71
2023/06/15 03:32:29;;;;;;;;;;;;;;;;;;5034852;28;19994;-72
2023/06/15 03:34:57;;;;;;;;;;;;;;;;;;5052173;28;19925;-72
2023/06/15 03:37:24;;;;;;;;;;;;;;;;;;5051456;28;19925;-71
2023/06/15 03:39:51;;;;;;;;;;;;;;;;;;5044753;28;19979;-72
2023/06/15 03:42:18;;;;;;;;;;;;;;;;;;5051071;28;19964;-71
2023/06/15 03:44:45;;;;;;;;;;;;;;;;;;5051512;28;19924;-72
2023/06/15 03:47:12;;;;;;;;;;;;;;;;;;5036702;28;19925;-72
2023/06/15 03:49:39;;;;;;;;;;;;;;;;;;5034157;28;20016;-72
2023/06/15 03:52:06;;;;;;;;;;;;;;;;;;5048234;28;20015;-71
2023/06/15 03:54:33;;;;;;;;;;;;;;;;;;5051335;28;19925;-72
2023/06/15 03:57:00;;;;;;;;;;;;;;;;;;5051543;28;19979;-71
2023/06/15 03:59:27;;;;;;;;;;;;;;;;;;5042945;28;20009;-72
2023/06/15 04:01:54;;;;;;;;;;;;;;;;;;5049728;28;19967;-72
2023/06/15 04:04:21;;;;;;;;;;;;;;;;;;5050376;28;19925;-72
2023/06/15 04:06:52;;;;;;;;;;;;;;;;;;5054422;28;20003;-71
2023/06/15 04:09:19;;;;;;;;;;;;;;;;;;5038517;28;19929;-71
2023/06/15 04:11:46;;;;;;;;;;;;;;;;;;5035363;28;19979;-71
2023/06/15 04:14:14;;;;;;;;;;;;;;;;;;5054592;28;19924;-71
2023/06/15 04:16:41;;;;;;;;;;;;;;;;;;5054976;28;19925;-71
2023/06/15 04:19:08;;;;;;;;;;;;;;;;;;5055233;28;19925;-71
2023/06/15 04:21:35;;;;;;;;;;;;;;;;;;5050925;28;19925;-71
2023/06/15 04:24:02;;;;;;;;;;;;;;;;;;5047486;28;19925;-72
2023/06/15 04:26:29;;;;;;;;;;;;;;;;;;5033998;28;19925;-71
2023/06/15 04:28:57;;;;;;;;;;;;;;;;;;5033859;28;20016;-71
2023/06/15 04:31:31;;;;;;;;;;;;;;;;;;5042861;28;20202;-71
2023/06/15 04:33:58;;;;;;;;;;;;;;;;;;5051391;28;19925;-72
2023/06/15 04:36:25;;;;;;;;;;;;;;;;;;5049742;28;20347;-71
2023/06/15 04:38:52;;;;;;;;;;;;;;;;;;5033915;28;19940;-72
2023/06/15 04:41:22;;;;;;;;;;;;;;;;;;5049505;28;19931;-71
2023/06/15 04:43:49;;;;;;;;;;;;;;;;;;5034298;28;19947;-72
2023/06/15 04:46:17;;;;;;;;;;;;;;;;;;5039480;28;19932;-72
2023/06/15 04:48:44;;;;;;;;;;;;;;;;;;5048738;28;19931;-72
2023/06/15 04:51:11;;;;;;;;;;;;;;;;;;5047763;28;19925;-71
2023/06/15 04:53:38;;;;;;;;;;;;;;;;;;5045177;28;19929;-71
2023/06/15 04:56:05;;;;;;;;;;;;;;;;;;5038815;28;20354;-71
2023/06/15 04:58:32;;;;;;;;;;;;;;;;;;5034130;28;19925;-71
2023/06/15 05:00:59;;;;;;;;;;;;;;;;;;5039223;28;20008;-71
2023/06/15 05:03:27;;;;;;;;;;;;;;;;;;5041368;28;19960;-71
2023/06/15 05:05:54;;;;;;;;;;;;;;;;;;5043992;28;19925;-72
2023/06/15 05:08:21;;;;;;;;;;;;;;;;;;5052078;28;19948;-71
2023/06/15 05:10:47;;;;;;;;;;;;;;;;;;5047456;28;20304;-71
2023/06/15 05:13:14;;;;;;;;;;;;;;;;;;5037889;28;20303;-71
2023/06/15 05:15:41;;;;;;;;;;;;;;;;;;5038118;28;20017;-71
2023/06/15 05:18:08;;;;;;;;;;;;;;;;;;5053626;28;20402;-71
2023/06/15 05:20:35;;;;;;;;;;;;;;;;;;5043916;28;20374;-71
2023/06/15 05:23:02;;;;;;;;;;;;;;;;;;5051977;28;19933;-71
2023/06/15 05:25:29;;;;;;;;;;;;;;;;;;5048239;28;20012;-71
2023/06/15 05:27:56;;;;;;;;;;;;;;;;;;5052931;28;19932;-71
2023/06/15 05:30:26;;;;;;;;;;;;;;;;;;5051724;28;19925;-71
2023/06/15 05:32:53;;;;;;;;;;;;;;;;;;5053360;28;20011;-71
2023/06/15 05:35:20;;;;;;;;;;;;;;;;;;5051164;28;19925;-70
2023/06/15 05:37:47;;;;;;;;;;;;;;;;;;5047789;28;20016;-70
2023/06/15 05:40:14;;;;;;;;;;;;;;;;;;5050607;28;20015;-70
2023/06/15 05:42:41;;;;;;;;;;;;;;;;;;5052649;28;20461;-70
2023/06/15 05:45:08;;;;;;;;;;;;;;;;;;5047882;28;20352;-70
2023/06/15 05:47:35;;;;;;;;;;;;;;;;;;5039400;28;19950;-70
2023/06/15 05:50:02;;;;;;;;;;;;;;;;;;5041272;28;20525;-70
2023/06/15 05:52:29;;;;;;;;;;;;;;;;;;5048030;28;20394;-70
2023/06/15 05:54:56;;;;;;;;;;;;;;;;;;5045142;28;19930;-70
2023/06/15 05:57:23;;;;;;;;;;;;;;;;;;5047065;28;20020;-70
2023/06/15 05:59:50;;;;;;;;;;;;;;;;;;5046632;28;20339;-70
2023/06/15 06:02:17;;;;;;;;;;;;;;;;;;5036650;28;19956;-69
2023/06/15 06:04:44;;;;;;;;;;;;;;;;;;5048944;28;19968;-70
2023/06/15 06:07:11;;;;;;;;;;;;;;;;;;5043109;28;19929;-69
2023/06/15 06:09:38;;;;;;;;;;;;;;;;;;5052452;28;19925;-71
2023/06/15 06:12:05;;;;;;;;;;;;;;;;;;5051942;28;20466;-71
2023/06/15 06:14:32;;;;;;;;;;;;;;;;;;5044841;28;19925;-70
2023/06/15 06:16:59;;;;;;;;;;;;;;;;;;5048105;28;20008;-71
2023/06/15 06:19:26;;;;;;;;;;;;;;;;;;5049360;28;19968;-70
2023/06/15 06:21:53;;;;;;;;;;;;;;;;;;5038521;28;19931;-71
2023/06/15 06:24:20;;;;;;;;;;;;;;;;;;5032875;28;20049;-71
2023/06/15 06:26:46;;;;;;;;;;;;;;;;;;5037948;28;19933;-71
2023/06/15 06:29:14;;;;;;;;;;;;;;;;;;5037589;28;19976;-70
2023/06/15 06:31:42;;;;;;;;;;;;;;;;;;5037021;28;19975;-70
2023/06/15 06:34:10;;;;;;;;;;;;;;;;;;5042206;28;19925;-70
2023/06/15 06:36:37;;;;;;;;;;;;;;;;;;5041537;28;19933;-70
2023/06/15 06:39:04;;;;;;;;;;;;;;;;;;5047023;28;20043;-70
2023/06/15 06:41:31;;;;;;;;;;;;;;;;;;5043580;28;19925;-70
2023/06/15 06:43:58;;;;;;;;;;;;;;;;;;5040943;28;20015;-70
2023/06/15 06:46:25;;;;;;;;;;;;;;;;;;5046158;28;19946;-70
2023/06/15 06:48:52;;;;;;;;;;;;;;;;;;5050026;28;19979;-70
2023/06/15 06:51:19;;;;;;;;;;;;;;;;;;5052377;28;20008;-70
2023/06/15 06:53:46;;;;;;;;;;;;;;;;;;5047299;28;20016;-70
2023/06/15 06:56:13;;;;;;;;;;;;;;;;;;5042959;28;19925;-70
2023/06/15 06:58:40;;;;;;;;;;;;;;;;;;5038917;28;20450;-70
2023/06/15 07:01:07;;;;;;;;;;;;;;;;;;5047526;28;19925;-70
2023/06/15 07:03:35;;;;;;;;;;;;;;;;;;5048230;28;19948;-70
2023/06/15 07:06:02;;;;;;;;;;;;;;;;;;5041680;28;19925;-70
2023/06/15 07:08:32;;;;;;;;;;;;;;;;;;5049180;28;19924;-73
2023/06/15 07:10:59;;;;;;;;;;;;;;;;;;5050239;28;19979;-71
2023/06/15 07:13:26;;;;;;;;;;;;;;;;;;5048924;28;20023;-69
2023/06/15 07:15:56;;;;;;;;;;;;;;;;;;5050237;28;20007;-69
2023/06/15 07:18:23;;;;;;;;;;;;;;;;;;5048368;28;19925;-68
2023/06/15 07:20:53;;;;;;;;;;;;;;;;;;5041640;28;20334;-68
2023/06/15 07:23:20;;;;;;;;;;;;;;;;;;5034292;28;20004;-71
2023/06/15 07:25:47;;;;;;;;;;;;;;;;;;5035470;28;20035;-71
2023/06/15 07:28:14;;;;;;;;;;;;;;;;;;5047841;28;20016;-70
2023/06/15 07:30:41;;;;;;;;;;;;;;;;;;5039065;28;20020;-70
2023/06/15 07:33:08;;;;;;;;;;;;;;;;;;5047918;28;20246;-70
2023/06/15 07:35:35;;;;;;;;;;;;;;;;;;5043799;28;20046;-70
2023/06/15 07:38:02;;;;;;;;;;;;;;;;;;5043220;28;20336;-70
2023/06/15 07:40:29;;;;;;;;;;;;;;;;;;5048567;28;19931;-70
2023/06/15 07:42:56;;;;;;;;;;;;;;;;;;5052389;28;20011;-71
2023/06/15 07:45:23;;;;;;;;;;;;;;;;;;5047659;28;20342;-70
2023/06/15 07:47:50;;;;;;;;;;;;;;;;;;5046397;28;20311;-70
2023/06/15 07:50:17;;;;;;;;;;;;;;;;;;5042317;28;19925;-69
2023/06/15 07:52:44;;;;;;;;;;;;;;;;;;5047223;28;19925;-69
2023/06/15 07:55:11;;;;;;;;;;;;;;;;;;5047736;28;20338;-70
2023/06/15 07:57:38;;;;;;;;;;;;;;;;;;5051001;28;19925;-70
2023/06/15 08:00:05;;;;;;;;;;;;;;;;;;5050218;28;20012;-70
2023/06/15 08:02:32;;;;;;;;;;;;;;;;;;5047941;28;19929;-70
2023/06/15 08:05:00;;;;;;;;;;;;;;;;;;5051878;28;20425;-70
2023/06/15 08:07:28;;;;;;;;;;;;;;;;;;5044398;28;20687;-71
2023/06/15 08:09:55;;;;;;;;;;;;;;;;;;5047351;28;19924;-69
2023/06/15 08:12:22;;;;;;;;;;;;;;;;;;5049863;28;20023;-70
2023/06/15 08:14:49;;;;;;;;;;;;;;;;;;5053199;28;20362;-70
2023/06/15 08:17:16;;;;;;;;;;;;;;;;;;5051781;28;19924;-70
2023/06/15 08:19:43;;;;;;;;;;;;;;;;;;5045361;28;20321;-70
2023/06/15 08:22:10;;;;;;;;;;;;;;;;;;5050125;28;20012;-70
2023/06/15 08:24:37;;;;;;;;;;;;;;;;;;5045055;28;19972;-70
2023/06/15 08:27:05;;;;;;;;;;;;;;;;;;5044138;28;19956;-70
2023/06/15 08:29:32;;;;;;;;;;;;;;;;;;5035855;28;19929;-71
2023/06/15 08:31:59;;;;;;;;;;;;;;;;;;5041430;28;20012;-71
2023/06/15 08:34:26;;;;;;;;;;;;;;;;;;5052245;28;19978;-66
2023/06/15 08:36:53;;;;;;;;;;;;;;;;;;5034119;28;19932;-69
2023/06/15 08:39:21;;;;;;;;;;;;;;;;;;5048306;28;19924;-69
2023/06/15 08:41:48;;;;;;;;;;;;;;;;;;5049773;28;20082;-69
2023/06/15 08:44:15;;;;;;;;;;;;;;;;;;5044887;28;19961;-70
2023/06/15 08:46:42;;;;;;;;;;;;;;;;;;5044044;28;19928;-70
2023/06/15 08:49:09;;;;;;;;;;;;;;;;;;5045063;28;20292;-72
2023/06/15 08:51:36;;;;;;;;;;;;;;;;;;5051331;28;19929;-72
2023/06/15 08:54:03;;;;;;;;;;;;;;;;;;5034358;28;19925;-72
2023/06/15 08:56:31;;;;;;;;;;;;;;;;;;5034302;28;20388;-69
2023/06/15 08:58:58;;;;;;;;;;;;;;;;;;5044018;28;19925;-69
2023/06/15 09:01:25;;;;;;;;;;;;;;;;;;5041669;28;20423;-65
2023/06/15 09:03:52;;;;;;;;;;;;;;;;;;5040955;28;19940;-70
2023/06/15 09:06:19;;;;;;;;;;;;;;;;;;5048490;28;19925;-69
2023/06/15 09:08:46;;;;;;;;;;;;;;;;;;5044600;28;19932;-69
2023/06/15 09:11:13;;;;;;;;;;;;;;;;;;5047249;28;20011;-71
2023/06/15 09:13:41;;;;;;;;;;;;;;;;;;5046838;28;20016;-72
2023/06/15 09:16:08;;;;;;;;;;;;;;;;;;5044205;28;20402;-71
2023/06/15 09:18:35;;;;;;;;;;;;;;;;;;5046011;28;19925;-71
2023/06/15 09:21:02;;;;;;;;;;;;;;;;;;5045761;28;19971;-72
2023/06/15 09:23:29;;;;;;;;;;;;;;;;;;5050377;28;19933;-73
2023/06/15 09:25:56;;;;;;;;;;;;;;;;;;5042180;28;19933;-72
2023/06/15 09:28:23;;;;;;;;;;;;;;;;;;5044739;28;19964;-72
2023/06/15 09:30:50;;;;;;;;;;;;;;;;;;5042212;28;19995;-71
2023/06/15 09:33:18;;;;;;;;;;;;;;;;;;5046944;28;19970;-71
2023/06/15 09:35:45;;;;;;;;;;;;;;;;;;5047818;28;19924;-71
2023/06/15 09:38:12;;;;;;;;;;;;;;;;;;5044693;28;19925;-71
2023/06/15 09:40:39;;;;;;;;;;;;;;;;;;5041768;28;20016;-71
2023/06/15 09:43:06;;;;;;;;;;;;;;;;;;5046999;28;19925;-71
2023/06/15 09:45:33;;;;;;;;;;;;;;;;;;5046717;28;19951;-70
2023/06/15 09:48:00;;;;;;;;;;;;;;;;;;5049282;28;20026;-71
2023/06/15 09:50:27;;;;;;;;;;;;;;;;;;5048015;28;19925;-71
2023/06/15 09:52:54;;;;;;;;;;;;;;;;;;5046667;28;19931;-73
2023/06/15 09:55:21;;;;;;;;;;;;;;;;;;5042439;28;20419;-71
2023/06/15 09:57:48;;;;;;;;;;;;;;;;;;5048836;28;20484;-71
2023/06/15 10:00:15;;;;;;;;;;;;;;;;;;5040682;28;20350;-70
2023/06/15 10:02:42;;;;;;;;;;;;;;;;;;5042664;28;19978;-70
2023/06/15 10:05:12;;;;;;;;;;;;;;;;;;5042873;28;19925;-71
2023/06/15 10:07:40;;;;;;;;;;;;;;;;;;5043215;28;19931;-71
2023/06/15 10:10:07;;;;;;;;;;;;;;;;;;5046911;28;20020;-71
2023/06/15 10:12:35;;;;;;;;;;;;;;;;;;5020259;28;19932;-71
2023/06/15 10:15:02;;;;;;;;;;;;;;;;;;5050928;28;19924;-69
2023/06/15 10:17:33;;;;;;;;;;;;;;;;;;5047467;28;19925;-70
2023/06/15 10:20:01;;;;;;;;;;;;;;;;;;5044107;28;19925;-71
2023/06/15 10:22:28;;;;;;;;;;;;;;;;;;5046582;28;19924;-70
2023/06/15 10:24:55;;;;;;;;;;;;;;;;;;5042401;28;20470;-71
2023/06/15 10:27:22;;;;;;;;;;;;;;;;;;5040096;28;19983;-71
2023/06/15 10:29:49;;;;;;;;;;;;;;;;;;5045862;28;20027;-71
2023/06/15 10:32:16;;;;;;;;;;;;;;;;;;5042686;28;19925;-71
2023/06/15 10:34:44;;;;;;;;;;;;;;;;;;5036545;28;19925;-71
2023/06/15 10:37:11;;;;;;;;;;;;;;;;;;5034564;28;19932;-71
2023/06/15 10:39:38;;;;;;;;;;;;;;;;;;5049026;28;19975;-71
2023/06/15 10:42:05;;;;;;;;;;;;;;;;;;5050509;28;19940;-71
2023/06/15 10:44:32;;;;;;;;;;;;;;;;;;5051658;28;20383;-70
2023/06/15 10:47:00;;;;;;;;;;;;;;;;;;5051422;28;20019;-71
2023/06/15 10:49:27;;;;;;;;;;;;;;;;;;5048653;28;20452;-71
2023/06/15 10:51:54;;;;;;;;;;;;;;;;;;5049427;28;20019;-70
2023/06/15 10:54:21;;;;;;;;;;;;;;;;;;5051103;28;20008;-72
2023/06/15 10:56:48;;;;;;;;;;;;;;;;;;5041627;28;20398;-74
2023/06/15 10:59:15;;;;;;;;;;;;;;;;;;5044726;28;19924;-72
2023/06/15 11:01:42;;;;;;;;;;;;;;;;;;5038451;28;19984;-73
2023/06/15 11:04:09;;;;;;;;;;;;;;;;;;5042507;28;20376;-72
2023/06/15 11:06:36;;;;;;;;;;;;;;;;;;5047618;28;20019;-72
2023/06/15 11:09:03;;;;;;;;;;;;;;;;;;5042321;28;19932;-72
2023/06/15 11:11:30;;;;;;;;;;;;;;;;;;5052642;28;19928;-71
2023/06/15 11:13:57;;;;;;;;;;;;;;;;;;5051271;28;19931;-72
2023/06/15 11:16:24;;;;;;;;;;;;;;;;;;5042471;28;20384;-72
2023/06/15 11:18:51;;;;;;;;;;;;;;;;;;5046258;28;20371;-70
2023/06/15 11:21:18;;;;;;;;;;;;;;;;;;5045179;28;19925;-73
2023/06/15 11:23:45;;;;;;;;;;;;;;;;;;5051500;28;19924;-73
2023/06/15 11:26:12;;;;;;;;;;;;;;;;;;5040829;28;20379;-74
2023/06/15 11:28:41;;;;;;;;;;;;;;;;;;5050358;28;20455;-74
2023/06/15 11:31:08;;;;;;;;;;;;;;;;;;5053235;28;20012;-73
2023/06/15 11:33:36;;;;;;;;;;;;;;;;;;5053470;28;19924;-73
2023/06/15 11:36:03;;;;;;;;;;;;;;;;;;5050795;28;20346;-73
2023/06/15 11:38:30;;;;;;;;;;;;;;;;;;5053034;28;20368;-73
2023/06/15 11:40:57;;;;;;;;;;;;;;;;;;5050302;28;20012;-73
2023/06/15 11:43:24;;;;;;;;;;;;;;;;;;5047833;28;19929;-73
2023/06/15 11:45:51;;;;;;;;;;;;;;;;;;5039515;28;19928;-73
2023/06/15 11:48:19;;;;;;;;;;;;;;;;;;5053567;28;19983;-73
2023/06/15 11:50:46;;;;;;;;;;;;;;;;;;5044372;28;19925;-73
2023/06/15 11:53:13;;;;;;;;;;;;;;;;;;5048638;28;20012;-73
2023/06/15 11:55:40;;;;;;;;;;;;;;;;;;5049923;28;19991;-72
2023/06/15 11:58:07;;;;;;;;;;;;;;;;;;5042409;28;19952;-74
2023/06/15 12:00:34;;;;;;;;;;;;;;;;;;5043652;28;20010;-74
2023/06/15 12:03:01;;;;;;;;;;;;;;;;;;5043227;28;19932;-74
2023/06/15 12:05:28;;;;;;;;;;;;;;;;;;5048404;28;20012;-75
2023/06/15 12:07:55;;;;;;;;;;;;;;;;;;5050737;28;19972;-72
2023/06/15 12:10:22;;;;;;;;;;;;;;;;;;5045138;28;20011;-72
2023/06/15 12:12:51;;;;;;;;;;;;;;;;;;5051805;28;19924;-72
2023/06/15 12:15:17;;;;;;;;;;;;;;;;;;5053511;28;19925;-72
2023/06/15 12:17:44;;;;;;;;;;;;;;;;;;5048309;28;20257;-71
2023/06/15 12:20:13;;;;;;;;;;;;;;;;;;5046126;28;20011;-72
2023/06/15 12:22:40;;;;;;;;;;;;;;;;;;5053744;28;19925;-72
2023/06/15 12:25:07;;;;;;;;;;;;;;;;;;5054085;28;19925;-72
2023/06/15 12:27:36;;;;;;;;;;;;;;;;;;5052893;28;19994;-72
2023/06/15 12:30:03;;;;;;;;;;;;;;;;;;5039409;28;20368;-72
2023/06/15 12:32:31;;;;;;;;;;;;;;;;;;5042176;28;19925;-74
2023/06/15 12:34:59;;;;;;;;;;;;;;;;;;5052122;28;20607;-72
2023/06/15 12:37:27;;;;;;;;;;;;;;;;;;5052063;28;19925;-72
2023/06/15 12:39:56;;;;;;;;;;;;;;;;;;5053077;28;19951;-72
2023/06/15 12:42:23;;;;;;;;;;;;;;;;;;5053131;28;19924;-72
2023/06/15 12:44:50;;;;;;;;;;;;;;;;;;5054008;28;19933;-71
2023/06/15 12:47:17;;;;;;;;;;;;;;;;;;5041976;28;19929;-68
2023/06/15 12:49:45;;;;;;;;;;;;;;;;;;5051353;28;20407;-68
2023/06/15 12:52:12;;;;;;;;;;;;;;;;;;5052888;28;19925;-69
2023/06/15 12:54:39;;;;;;;;;;;;;;;;;;5050889;28;19959;-70
2023/06/15 12:57:06;;;;;;;;;;;;;;;;;;5053852;28;19947;-70
2023/06/15 12:59:33;;;;;;;;;;;;;;;;;;5052935;28;20365;-70
2023/06/15 13:02:01;;;;;;;;;;;;;;;;;;5050140;28;20047;-69
2023/06/15 13:04:28;;;;;;;;;;;;;;;;;;5044409;28;19924;-69
2023/06/15 13:06:55;;;;;;;;;;;;;;;;;;5050634;28;19971;-69
2023/06/15 13:09:22;;;;;;;;;;;;;;;;;;5037130;28;20019;-69
2023/06/15 13:11:49;;;;;;;;;;;;;;;;;;5046666;28;20019;-69
2023/06/15 13:14:16;;;;;;;;;;;;;;;;;;5039095;28;20261;-70
2023/06/15 13:16:43;;;;;;;;;;;;;;;;;;5049023;28;19924;-68
2023/06/15 13:19:11;;;;;;;;;;;;;;;;;;5047667;28;19924;-70
2023/06/15 13:21:37;;;;;;;;;;;;;;;;;;5048208;28;19959;-69
2023/06/15 13:24:05;;;;;;;;;;;;;;;;;;5043310;28;19933;-72
2023/06/15 13:26:32;;;;;;;;;;;;;;;;;;5050690;28;19971;-72
2023/06/15 13:28:59;;;;;;;;;;;;;;;;;;5040194;28;20027;-72
2023/06/15 13:31:26;;;;;;;;;;;;;;;;;;5048171;28;19932;-72
2023/06/15 13:33:53;;;;;;;;;;;;;;;;;;5043933;28;19925;-72
2023/06/15 13:36:21;;;;;;;;;;;;;;;;;;5052331;28;19925;-70
2023/06/15 13:38:49;;;;;;;;;;;;;;;;;;5052453;28;20353;-74
2023/06/15 13:41:16;;;;;;;;;;;;;;;;;;5048261;28;19931;-72
2023/06/15 13:43:42;;;;;;;;;;;;;;;;;;5046864;28;19928;-71
2023/06/15 13:46:09;;;;;;;;;;;;;;;;;;5051476;28;19925;-69
2023/06/15 13:48:36;;;;;;;;;;;;;;;;;;5044871;28;20011;-72
2023/06/15 13:51:03;;;;;;;;;;;;;;;;;;5046482;28;19933;-69
2023/06/15 13:53:31;;;;;;;;;;;;;;;;;;5049811;28;20425;-69
2023/06/15 13:55:58;;;;;;;;;;;;;;;;;;5052335;28;19925;-70
2023/06/15 13:58:25;;;;;;;;;;;;;;;;;;5050305;28;19925;-71
2023/06/15 14:00:52;;;;;;;;;;;;;;;;;;5034858;28;19925;-73
2023/06/15 14:03:19;;;;;;;;;;;;;;;;;;5048010;28;20024;-73
2023/06/15 14:05:46;;;;;;;;;;;;;;;;;;5051250;28;19931;-72
2023/06/15 14:08:13;;;;;;;;;;;;;;;;;;5047569;28;20011;-73
2023/06/15 14:10:40;;;;;;;;;;;;;;;;;;5049381;28;19950;-73
2023/06/15 14:13:07;;;;;;;;;;;;;;;;;;5049161;28;19925;-71
2023/06/15 14:15:34;;;;;;;;;;;;;;;;;;5047749;28;20016;-71
2023/06/15 14:18:01;;;;;;;;;;;;;;;;;;5051458;28;19924;-71
2023/06/15 14:20:28;;;;;;;;;;;;;;;;;;5051104;28;20427;-72
2023/06/15 14:22:55;;;;;;;;;;;;;;;;;;5051313;28;20015;-72
2023/06/15 14:25:22;;;;;;;;;;;;;;;;;;5044078;28;19929;-72
2023/06/15 14:27:49;;;;;;;;;;;;;;;;;;5040579;28;19932;-72
2023/06/15 14:30:16;;;;;;;;;;;;;;;;;;5042691;28;20015;-72
2023/06/15 14:32:43;;;;;;;;;;;;;;;;;;5045934;28;20015;-72
2023/06/15 14:35:10;;;;;;;;;;;;;;;;;;5047212;28;20335;-73
2023/06/15 14:37:37;;;;;;;;;;;;;;;;;;5044509;28;19943;-74
2023/06/15 14:40:04;;;;;;;;;;;;;;;;;;5044164;28;20631;-73
2023/06/15 14:42:31;;;;;;;;;;;;;;;;;;5044351;28;19932;-74
2023/06/15 14:44:58;;;;;;;;;;;;;;;;;;5031633;28;19929;-73
2023/06/15 14:47:25;;;;;;;;;;;;;;;;;;5034579;28;20011;-76
2023/06/15 14:49:52;;;;;;;;;;;;;;;;;;5037889;28;19984;-73
2023/06/15 14:52:19;;;;;;;;;;;;;;;;;;5047487;28;20003;-74
2023/06/15 14:54:46;;;;;;;;;;;;;;;;;;5036077;28;19931;-73
2023/06/15 14:57:13;;;;;;;;;;;;;;;;;;5047802;28;19968;-74
2023/06/15 14:59:40;;;;;;;;;;;;;;;;;;5045969;28;19924;-73
2023/06/15 15:02:07;;;;;;;;;;;;;;;;;;5046497;28;20382;-74
2023/06/15 15:04:34;;;;;;;;;;;;;;;;;;5048784;28;19972;-74
2023/06/15 15:07:01;;;;;;;;;;;;;;;;;;5049948;28;20016;-74
2023/06/15 15:09:28;;;;;;;;;;;;;;;;;;5048777;28;19932;-73
2023/06/15 15:11:55;;;;;;;;;;;;;;;;;;5033062;28;19979;-74
2023/06/15 15:14:22;;;;;;;;;;;;;;;;;;5037006;28;20297;-74
2023/06/15 15:16:49;;;;;;;;;;;;;;;;;;5046444;28;20382;-74
2023/06/15 15:19:16;;;;;;;;;;;;;;;;;;5039936;28;20015;-74
2023/06/15 15:21:43;;;;;;;;;;;;;;;;;;5044315;28;20011;-74
2023/06/15 15:24:10;;;;;;;;;;;;;;;;;;5044538;28;20023;-74
2023/06/15 15:26:37;;;;;;;;;;;;;;;;;;5044101;28;20391;-74
2023/06/15 15:29:04;;;;;;;;;;;;;;;;;;5036846;28;20363;-74
2023/06/15 15:31:32;;;;;;;;;;;;;;;;;;5045106;28;19978;-74
2023/06/15 15:33:59;;;;;;;;;;;;;;;;;;5041915;28;20430;-74
2023/06/15 15:36:26;;;;;;;;;;;;;;;;;;5046913;28;19933;-73
2023/06/15 15:38:53;;;;;;;;;;;;;;;;;;5043759;28;19939;-72
2023/06/15 15:41:21;;;;;;;;;;;;;;;;;;5037813;28;19931;-72
2023/06/15 15:43:48;;;;;;;;;;;;;;;;;;5047748;28;19924;-72
2023/06/15 15:46:15;;;;;;;;;;;;;;;;;;5050383;28;20410;-73
2023/06/15 15:48:42;;;;;;;;;;;;;;;;;;5049698;28;19987;-73
2023/06/15 15:51:09;;;;;;;;;;;;;;;;;;5042952;28;20012;-74
2023/06/15 15:53:36;;;;;;;;;;;;;;;;;;5049888;28;20330;-74
2023/06/15 15:56:03;;;;;;;;;;;;;;;;;;5054058;28;19925;-74
2023/06/15 15:58:30;;;;;;;;;;;;;;;;;;5041268;28;19931;-76
2023/06/15 16:00:57;;;;;;;;;;;;;;;;;;5048714;28;19929;-76
2023/06/15 16:03:25;;;;;;;;;;;;;;;;;;5042305;28;20348;-78
2023/06/15 16:05:52;;;;;;;;;;;;;;;;;;5053624;28;20533;-75
2023/06/15 16:08:19;;;;;;;;;;;;;;;;;;5046745;28;19925;-75
2023/06/15 16:10:46;;;;;;;;;;;;;;;;;;5038050;28;19959;-75
2023/06/15 16:13:14;;;;;;;;;;;;;;;;;;5045770;28;19925;-75
2023/06/15 16:15:42;;;;;;;;;;;;;;;;;;5039085;28;20376;-74
2023/06/15 16:18:09;;;;;;;;;;;;;;;;;;5037659;28;20007;-74
2023/06/15 16:20:36;;;;;;;;;;;;;;;;;;5054261;28;20043;-76
2023/06/15 16:23:03;;;;;;;;;;;;;;;;;;5048289;28;19933;-75
2023/06/15 16:25:30;;;;;;;;;;;;;;;;;;5043435;28;20391;-75
2023/06/15 16:27:57;;;;;;;;;;;;;;;;;;5045910;28;20410;-75
2023/06/15 16:30:24;;;;;;;;;;;;;;;;;;5039918;28;20331;-75
2023/06/15 16:32:51;;;;;;;;;;;;;;;;;;5036977;28;19931;-75
2023/06/15 16:35:18;;;;;;;;;;;;;;;;;;5044935;28;20408;-74
2023/06/15 16:37:45;;;;;;;;;;;;;;;;;;5043209;28;20024;-75
2023/06/15 16:40:12;;;;;;;;;;;;;;;;;;5043478;28;19932;-74
2023/06/15 16:42:39;;;;;;;;;;;;;;;;;;5052201;28;19941;-74
2023/06/15 16:45:06;;;;;;;;;;;;;;;;;;5045870;28;19964;-74